PAMR/MRI METAR and TAF weather

Enter ICAO airport designator
Station Type Date Time Source
PAMR METAR 2019/02/18 03:53 UTC NOAA

PAMR 180353Z 04003KT 10SM -SN OVC041 M02/M04 A2981 RMK AO2 SNB49 SLP097 P0000 T10221039


Station Type Date Time Source
PAMR Decoded METAR 2019/02/18 03:53 UTC NOAA

ANCHORAGE MERRILL FIELD, AK, United States (PAMR) 61-13N 149-51W
Feb 17, 2019 - 10:53 PM EST / 2019.02.18 0353 UTC
Wind: from the NE (040 degrees) at 3 MPH (3 KT):0
Visibility: 10 mile(s):0
Sky conditions: overcast
Weather: light snow
Precipitation last hour: A trace
Temperature: 28.0 F (-2.2 C)
Dew Point: 25.0 F (-3.9 C)
Relative Humidity: 88%
Pressure (altimeter): 29.81 in. Hg (1009 hPa)
ob: PAMR 180353Z 04003KT 10SM -SN OVC041 M02/M04 A2981 RMK AO2 SNB49 SLP097 P0000 T10221039
cycle: 4

Station Type Date Time Source
PAMR TAF UTC NOAA

Error!


Example: see airport list